Time;durP1;ratioP1;P1;durP2;ratioP2;P2;SDS_P1;SDS_P2;PMS_P1;PMS_P2;Temp;Humidity;BMP_temperature;BMP_pressure;BME280_temperature;BME280_humidity;BME280_pressure;Samples;Min_cycle;Max_cycle;Signal;HPM_P1;HPM_P2
2022/10/27 00:00:43;;;;;;;;;2.00;1.00;;;;;23.65;35.55;100300.75;5062735;28;45600;-71
2022/10/27 00:03:10;;;;;;;;;2.00;2.00;;;;;23.62;35.78;100304.38;5037489;28;45310;-71
2022/10/27 00:05:36;;;;;;;;;1.00;1.00;;;;;23.63;35.68;100306.09;5054154;28;45534;-70
2022/10/27 00:08:02;;;;;;;;;1.00;1.00;;;;;23.73;35.56;100333.41;5034274;28;45613;-71
2022/10/27 00:10:28;;;;;;;;;1.33;1.00;;;;;23.68;35.75;100312.19;5038469;28;45436;-71
2022/10/27 00:12:53;;;;;;;;;1.33;1.33;;;;;23.69;35.57;100315.72;5038404;28;45417;-71
2022/10/27 00:15:19;;;;;;;;;2.00;0.67;;;;;23.78;35.35;100319.06;5038952;28;45652;-71
2022/10/27 00:17:44;;;;;;;;;0.67;0.67;;;;;23.94;35.21;100332.81;5038293;28;46504;-71
2022/10/27 00:20:10;;;;;;;;;2.00;2.00;;;;;23.89;35.32;100318.72;5038415;28;45572;-71
2022/10/27 00:22:36;;;;;;;;;2.00;1.00;;;;;23.83;35.30;100324.25;5038476;28;45508;-71
2022/10/27 00:25:03;;;;;;;;;1.00;1.00;;;;;23.85;35.40;100325.06;5038467;28;45473;-71
2022/10/27 00:27:28;;;;;;;;;2.00;1.33;;;;;23.93;35.54;100333.72;5036754;28;47139;-71
2022/10/27 00:29:53;;;;;;;;;1.00;1.00;;;;;23.94;35.64;100342.63;5037926;28;45540;-71
2022/10/27 00:32:19;;;;;;;;;1.33;1.00;;;;;23.99;35.77;100351.34;5038078;28;45472;-71
2022/10/27 00:34:45;;;;;;;;;2.00;1.00;;;;;23.96;35.42;100354.13;5038609;28;45472;-71
2022/10/27 00:37:12;;;;;;;;;2.33;1.00;;;;;23.93;35.36;100357.75;5037890;28;45602;-72
2022/10/27 00:39:38;;;;;;;;;1.33;1.00;;;;;23.77;36.05;100340.38;5037656;28;45316;-71
2022/10/27 00:42:03;;;;;;;;;3.00;1.00;;;;;23.78;35.22;100344.84;5038255;28;45213;-71
2022/10/27 00:44:41;;;;;;;;;1.00;1.00;;;;;23.91;35.31;100346.25;5053412;28;45700;-71
2022/10/27 00:47:18;;;;;;;;;3.33;0.67;;;;;23.94;34.97;100347.97;5037310;28;45553;-71
2022/10/27 00:49:46;;;;;;;;;2.33;1.00;;;;;24.02;35.19;100367.28;5059513;28;45486;-71
2022/10/27 00:52:30;;;;;;;;;2.00;1.33;;;;;23.92;35.65;100341.81;5036672;28;45521;-71
2022/10/27 00:55:00;;;;;;;;;1.00;1.00;;;;;24.02;35.02;100359.28;5037621;28;45307;-72
2022/10/27 00:57:29;;;;;;;;;3.00;1.00;;;;;23.92;35.10;100334.66;5035598;28;45570;-71
2022/10/27 00:59:55;;;;;;;;;1.00;1.00;;;;;23.94;34.89;100327.50;5036311;28;45513;-72
2022/10/27 01:02:21;;;;;;;;;1.33;1.00;;;;;24.05;35.01;100326.31;5037735;28;46153;-71
2022/10/27 01:04:46;;;;;;;;;0.33;0.33;;;;;24.08;34.79;100334.22;5053676;28;45616;-71
2022/10/27 01:07:15;;;;;;;;;2.00;1.00;;;;;24.07;35.39;100335.13;5037821;28;46511;-72
2022/10/27 01:09:42;;;;;;;;;1.00;1.00;;;;;23.95;35.47;100325.69;5037517;28;45400;-71
2022/10/27 01:12:08;;;;;;;;;2.00;1.00;;;;;24.07;34.86;100337.81;5037682;28;45453;-71
2022/10/27 01:14:34;;;;;;;;;2.00;1.00;;;;;23.95;35.59;100337.22;5036440;28;45438;-71
2022/10/27 01:17:16;;;;;;;;;2.00;1.00;;;;;24.00;35.21;100345.13;5053039;28;47895;-71
2022/10/27 01:20:06;;;;;;;;;1.00;1.00;;;;;23.95;35.70;100347.91;5037156;28;45397;-71
2022/10/27 01:22:43;;;;;;;;;1.00;0.00;;;;;23.93;35.61;100340.88;5035911;28;45541;-71
2022/10/27 01:25:35;;;;;;;;;3.00;1.00;;;;;23.89;35.87;100340.06;5036197;28;45402;-71
2022/10/27 01:28:35;;;;;;;;;1.00;1.00;;;;;23.86;35.62;100344.66;5003501;28;45556;-71
2022/10/27 01:31:08;;;;;;;;;2.00;1.00;;;;;23.86;35.71;100340.19;5038058;28;45482;-71
2022/10/27 01:33:48;;;;;;;;;1.00;1.00;;;;;23.86;35.31;100340.19;5038026;28;45212;-71
2022/10/27 01:36:25;;;;;;;;;3.00;1.00;;;;;23.88;35.45;100340.16;5036655;28;45523;-71
2022/10/27 01:39:11;;;;;;;;;1.00;1.00;;;;;23.86;35.24;100332.19;5038100;28;46205;-72
2022/10/27 01:41:49;;;;;;;;;1.00;1.00;;;;;23.88;35.16;100327.66;5037380;28;45441;-71
2022/10/27 01:44:28;;;;;;;;;1.00;1.00;;;;;23.87;34.48;100311.69;5037803;28;45512;-71
2022/10/27 01:46:56;;;;;;;;;0.67;0.67;;;;;23.62;34.39;100262.56;5053648;28;45474;-72
2022/10/27 01:49:22;;;;;;;;;2.00;1.33;;;;;24.05;34.37;100324.50;5037828;28;46718;-71
2022/10/27 01:51:50;;;;;;;;;2.00;1.33;;;;;23.99;33.88;100312.25;5037892;28;45512;-71
2022/10/27 01:54:19;;;;;;;;;0.67;0.67;;;;;24.16;34.04;100332.22;5037387;28;45500;-71
2022/10/27 01:56:51;;;;;;;;;1.33;1.33;;;;;24.27;34.09;100350.56;5038022;28;45216;-71
2022/10/27 01:59:31;;;;;;;;;1.00;1.00;;;;;24.28;34.44;100349.66;5035228;28;45459;-72
2022/10/27 02:02:26;;;;;;;;;2.67;1.67;;;;;24.15;34.54;100327.78;5037521;28;45329;-71
2022/10/27 02:05:14;;;;;;;;;1.67;0.00;;;;;24.21;34.48;100340.94;5037570;28;45498;-71
2022/10/27 02:08:04;;;;;;;;;1.00;1.00;;;;;24.19;34.15;100342.78;5037544;28;45373;-71
2022/10/27 02:10:55;;;;;;;;;3.67;1.00;;;;;24.08;34.09;100328.91;5052500;28;46663;-71
2022/10/27 02:13:22;;;;;;;;;2.00;1.00;;;;;24.15;34.82;100344.69;5037478;28;45440;-71
2022/10/27 02:16:00;;;;;;;;;3.33;1.00;;;;;24.17;34.50;100342.84;5037481;28;45414;-72
2022/10/27 02:18:34;;;;;;;;;2.00;1.00;;;;;24.11;34.13;100331.47;5053119;28;45335;-71
2022/10/27 02:21:04;;;;;;;;;2.00;1.00;;;;;24.19;34.17;100343.69;5037278;28;46095;-72
2022/10/27 02:23:30;;;;;;;;;1.00;1.00;;;;;24.10;34.32;100335.94;5037456;28;45493;-72
2022/10/27 02:26:16;;;;;;;;;0.33;0.33;;;;;24.20;34.16;100336.53;5037383;28;45298;-72
2022/10/27 02:28:50;;;;;;;;;1.00;1.00;;;;;24.21;33.75;100338.25;5037473;28;45390;-72
2022/10/27 02:31:18;;;;;;;;;1.00;0.67;;;;;24.26;34.08;100331.00;5035702;28;46826;-71
2022/10/27 02:33:44;;;;;;;;;0.33;0.00;;;;;24.34;33.47;100334.31;5037038;28;45317;-71
2022/10/27 02:36:09;;;;;;;;;1.67;1.00;;;;;24.36;33.60;100336.94;5037333;28;45492;-72
2022/10/27 02:38:35;;;;;;;;;1.00;1.00;;;;;24.32;33.68;100305.94;5037596;28;45382;-71
2022/10/27 02:41:00;;;;;;;;;1.00;0.33;;;;;24.50;33.45;100320.50;5036884;28;45645;-72
2022/10/27 02:43:26;;;;;;;;;1.00;1.00;;;;;24.44;33.15;100294.88;5052344;28;45453;-72
2022/10/27 02:45:52;;;;;;;;;2.00;2.00;;;;;24.29;33.49;100271.31;5052680;28;45228;-72
2022/10/27 02:48:17;;;;;;;;;2.00;1.00;;;;;24.48;33.17;100303.66;5037374;28;45429;-72
2022/10/27 02:50:43;;;;;;;;;2.00;0.33;;;;;24.46;33.69;100300.16;5036821;28;45503;-71
2022/10/27 02:53:08;;;;;;;;;1.67;1.00;;;;;24.46;33.78;100289.47;5036798;28;45495;-71
2022/10/27 02:55:34;;;;;;;;;1.00;1.00;;;;;24.45;33.56;100282.38;5036986;28;45460;-71
2022/10/27 02:58:00;;;;;;;;;1.00;0.67;;;;;24.49;33.00;100286.69;5037333;28;45323;-71
2022/10/27 03:00:25;;;;;;;;;0.00;0.00;;;;;24.57;33.21;100300.72;5037332;28;46377;-71
2022/10/27 03:02:51;;;;;;;;;2.00;1.33;;;;;24.50;33.66;100291.13;5036843;28;45302;-71
2022/10/27 03:05:16;;;;;;;;;0.00;0.00;;;;;24.47;33.79;100301.91;5037209;28;45326;-72
2022/10/27 03:07:43;;;;;;;;;0.33;0.33;;;;;24.47;33.52;100299.22;5037125;28;45407;-71
2022/10/27 03:10:09;;;;;;;;;2.67;2.00;;;;;24.34;33.85;100280.06;5038363;28;45596;-71
2022/10/27 03:12:35;;;;;;;;;2.00;2.00;;;;;24.38;34.28;100287.91;5040106;28;45160;-72
2022/10/27 03:15:01;;;;;;;;;2.33;1.00;;;;;24.38;34.23;100292.38;5040626;28;45381;-72
2022/10/27 03:17:26;;;;;;;;;1.00;0.67;;;;;24.31;33.51;100280.13;5040673;28;46011;-72
2022/10/27 03:19:51;;;;;;;;;1.33;0.67;;;;;24.40;33.57;100282.53;5040138;28;45526;-71
2022/10/27 03:22:17;;;;;;;;;1.00;1.00;;;;;24.45;33.69;100288.59;5038701;28;45319;-71
2022/10/27 03:24:42;;;;;;;;;2.00;1.00;;;;;24.38;33.55;100279.91;5039031;28;45781;-71
2022/10/27 03:27:08;;;;;;;;;1.33;1.33;;;;;24.36;33.75;100275.53;5040550;28;45260;-72
2022/10/27 03:29:34;;;;;;;;;3.00;2.00;;;;;24.34;33.20;100267.56;5055361;28;46583;-71
2022/10/27 03:31:59;;;;;;;;;1.33;1.00;;;;;24.46;33.07;100281.47;5039822;28;45421;-71
2022/10/27 03:34:24;;;;;;;;;2.00;1.00;;;;;24.51;33.43;100276.88;5040304;28;45354;-72
2022/10/27 03:36:50;;;;;;;;;1.00;1.00;;;;;24.61;33.20;100287.22;5040105;28;45472;-71
2022/10/27 03:39:15;;;;;;;;;0.00;0.00;;;;;24.59;33.46;100273.06;5039813;28;45481;-71
2022/10/27 03:41:41;;;;;;;;;1.33;1.00;;;;;24.67;32.88;100279.94;5039809;28;45446;-71
2022/10/27 03:44:07;;;;;;;;;0.67;0.67;;;;;24.59;33.09;100264.16;5039592;28;45334;-71
2022/10/27 03:46:32;;;;;;;;;1.00;1.00;;;;;24.27;33.01;100203.75;5039793;28;45455;-71
2022/10/27 03:48:58;;;;;;;;;2.67;1.00;;;;;24.72;32.84;100278.00;5040103;28;46221;-71
2022/10/27 03:51:23;;;;;;;;;1.00;1.00;;;;;24.78;32.75;100275.13;5039527;28;45516;-71
2022/10/27 03:53:49;;;;;;;;;2.00;2.00;;;;;24.77;32.99;100266.22;5039776;28;45445;-71
2022/10/27 03:56:14;;;;;;;;;2.00;1.00;;;;;24.87;32.67;100269.47;5038511;28;45585;-71
2022/10/27 03:58:40;;;;;;;;;2.00;1.00;;;;;24.85;32.63;100263.31;5039304;28;45571;-71
2022/10/27 04:01:05;;;;;;;;;1.33;1.00;;;;;24.83;33.01;100256.25;5039544;28;45390;-71
2022/10/27 04:03:31;;;;;;;;;1.67;1.33;;;;;24.84;33.00;100256.22;5055175;28;45436;-71
2022/10/27 04:05:57;;;;;;;;;1.00;0.67;;;;;24.81;33.17;100257.19;5040054;28;45472;-71
2022/10/27 04:08:23;;;;;;;;;1.00;1.00;;;;;24.84;33.10;100274.03;5039190;28;45723;-71
2022/10/27 04:10:49;;;;;;;;;2.00;1.00;;;;;24.79;32.89;100275.06;5039366;28;45483;-71
2022/10/27 04:13:14;;;;;;;;;3.00;1.33;;;;;24.83;33.17;100282.97;5039426;28;45508;-72
2022/10/27 04:15:40;;;;;;;;;2.67;2.00;;;;;24.87;33.05;100289.94;5055094;28;45620;-71
2022/10/27 04:18:05;;;;;;;;;1.67;1.67;;;;;24.85;32.62;100282.00;5039462;28;46287;-71
2022/10/27 04:20:31;;;;;;;;;2.00;1.00;;;;;24.86;33.15;100285.56;5039653;28;45730;-71
2022/10/27 04:22:57;;;;;;;;;3.00;2.00;;;;;24.93;32.83;100293.31;5038798;28;45311;-71
2022/10/27 04:25:24;;;;;;;;;1.00;1.00;;;;;24.94;32.62;100292.38;5039536;28;45375;-71
2022/10/27 04:27:50;;;;;;;;;2.00;2.00;;;;;24.88;32.79;100286.38;5071331;27;47025;-72
2022/10/27 04:30:15;;;;;;;;;2.00;1.00;;;;;24.84;32.58;100274.91;5039002;28;45466;-72
2022/10/27 04:32:41;;;;;;;;;1.33;1.00;;;;;24.91;32.66;100280.91;5039087;28;45444;-72
2022/10/27 04:35:07;;;;;;;;;0.33;0.33;;;;;24.96;32.40;100286.97;5038159;28;45440;-76
2022/10/27 04:37:33;;;;;;;;;0.00;0.00;;;;;24.90;33.03;100281.84;5039009;28;46307;-72
2022/10/27 04:39:59;;;;;;;;;2.33;1.00;;;;;24.77;33.09;100260.91;5039133;28;45476;-71
2022/10/27 04:42:24;;;;;;;;;2.00;1.00;;;;;24.80;32.58;100259.91;5039129;28;45560;-71
2022/10/27 04:44:50;;;;;;;;;1.00;1.00;;;;;24.88;33.00;100284.56;5037849;28;45524;-72
2022/10/27 04:47:15;;;;;;;;;2.00;1.67;;;;;24.79;32.81;100272.41;5038974;28;45349;-71
2022/10/27 04:49:41;;;;;;;;;2.00;1.00;;;;;24.80;32.81;100273.25;5038544;28;45389;-71
2022/10/27 04:52:06;;;;;;;;;1.67;1.67;;;;;24.86;32.51;100273.06;5038766;28;45350;-71
2022/10/27 04:54:32;;;;;;;;;1.00;1.00;;;;;24.88;32.72;100263.19;5039107;28;45232;-72
2022/10/27 04:56:57;;;;;;;;;2.00;1.00;;;;;24.90;32.36;100253.31;5038783;28;45392;-71
2022/10/27 04:59:23;;;;;;;;;1.00;1.00;;;;;24.89;32.61;100254.25;5038690;28;45413;-71
2022/10/27 05:01:48;;;;;;;;;4.33;2.00;;;;;24.88;31.58;100255.19;5038938;28;45524;-71
2022/10/27 05:04:14;;;;;;;;;2.00;2.00;;;;;25.02;31.83;100260.91;5038930;28;45333;-71
2022/10/27 05:06:40;;;;;;;;;1.00;1.00;;;;;25.06;32.18;100269.72;5038509;28;46320;-71
2022/10/27 05:09:05;;;;;;;;;2.33;2.00;;;;;25.08;31.63;100267.84;5038674;28;45461;-72
2022/10/27 05:11:31;;;;;;;;;1.00;0.33;;;;;25.17;31.72;100267.56;5054161;28;45258;-71
2022/10/27 05:13:56;;;;;;;;;1.00;1.00;;;;;25.16;31.54;100278.28;5038374;28;45329;-72
2022/10/27 05:16:22;;;;;;;;;2.33;2.00;;;;;25.17;31.64;100277.38;5038087;28;45481;-72
2022/10/27 05:18:47;;;;;;;;;2.00;0.00;;;;;25.19;31.64;100280.88;5038221;28;45446;-72
2022/10/27 05:21:13;;;;;;;;;1.00;1.00;;;;;25.21;31.32;100279.00;5036817;28;45682;-72
2022/10/27 05:23:39;;;;;;;;;1.00;1.00;;;;;25.13;31.83;100275.75;5037531;28;45484;-75
2022/10/27 05:26:05;;;;;;;;;1.67;1.67;;;;;25.15;32.09;100273.88;5038418;28;46478;-71
2022/10/27 05:28:30;;;;;;;;;3.33;1.00;;;;;25.12;32.07;100272.16;5038404;28;45471;-72
2022/10/27 05:30:57;;;;;;;;;2.00;2.00;;;;;25.17;32.05;100288.94;5038370;28;45424;-71
2022/10/27 05:33:24;;;;;;;;;1.00;1.00;;;;;25.12;31.38;100276.66;5037943;28;45502;-72
2022/10/27 05:35:49;;;;;;;;;1.33;1.00;;;;;25.16;32.15;100281.81;5037997;28;46202;-72
2022/10/27 05:38:15;;;;;;;;;2.00;2.00;;;;;25.20;31.54;100294.16;5036772;28;45259;-72
2022/10/27 05:40:41;;;;;;;;;2.00;1.00;;;;;25.20;31.74;100288.81;5038128;28;45454;-73
2022/10/27 05:43:07;;;;;;;;;1.00;1.00;;;;;25.12;31.51;100260.59;5038238;28;45519;-74
2022/10/27 05:45:33;;;;;;;;;1.67;1.33;;;;;25.22;31.33;100271.88;5038029;28;46536;-70
2022/10/27 05:48:00;;;;;;;;;2.00;1.00;;;;;25.35;31.12;100291.94;5036360;28;45340;-70
2022/10/27 05:50:28;;;;;;;;;1.67;1.67;;;;;25.22;32.00;100274.56;5037874;28;45456;-70
2022/10/27 05:52:53;;;;;;;;;2.33;1.00;;;;;25.25;31.73;100283.34;5036554;28;45531;-71
2022/10/27 05:55:20;;;;;;;;;2.00;2.00;;;;;25.33;31.81;100288.44;5037647;28;45584;-71
2022/10/27 05:57:59;;;;;;;;;2.00;1.00;;;;;25.24;31.67;100272.72;5037626;28;45235;-70
2022/10/27 06:00:29;;;;;;;;;3.00;1.00;;;;;25.20;31.74;100275.44;5037496;28;45445;-71
2022/10/27 06:02:59;;;;;;;;;1.33;1.33;;;;;25.17;31.88;100280.03;5037601;28;45433;-71
2022/10/27 06:05:25;;;;;;;;;1.00;1.00;;;;;25.09;32.36;100279.41;5037474;28;45298;-71
2022/10/27 06:07:51;;;;;;;;;2.00;1.00;;;;;25.07;32.67;100278.59;5037539;28;45459;-71
2022/10/27 06:10:17;;;;;;;;;1.00;0.67;;;;;25.11;32.26;100288.25;5037259;28;45440;-71
2022/10/27 06:12:43;;;;;;;;;2.67;2.00;;;;;24.97;32.52;100272.72;5036318;28;45554;-71
2022/10/27 06:15:09;;;;;;;;;1.33;0.00;;;;;24.99;32.64;100270.88;5036147;28;46588;-71
2022/10/27 06:17:34;;;;;;;;;2.00;1.00;;;;;24.95;32.49;100271.91;5037842;28;45449;-71
2022/10/27 06:20:00;;;;;;;;;0.67;0.67;;;;;25.00;32.58;100291.31;5037548;28;45525;-71
2022/10/27 06:22:26;;;;;;;;;2.00;1.00;;;;;24.97;32.46;100286.06;5037573;28;45476;-70
2022/10/27 06:24:51;;;;;;;;;8.00;5.00;;;;;24.96;32.52;100287.84;5037150;28;45343;-71
2022/10/27 06:27:17;;;;;;;;;2.67;2.67;;;;;24.89;32.59;100275.63;5035875;28;45392;-71
2022/10/27 06:29:42;;;;;;;;;3.67;3.00;;;;;24.85;32.67;100275.78;5035734;28;45657;-71
2022/10/27 06:32:08;;;;;;;;;1.00;1.00;;;;;24.99;32.43;100293.09;5036436;28;45589;-71
2022/10/27 06:34:33;;;;;;;;;1.33;1.33;;;;;24.88;32.91;100270.34;5035778;28;47039;-71
2022/10/27 06:37:02;;;;;;;;;3.67;1.00;;;;;24.92;32.89;100286.22;5037136;28;45437;-71
2022/10/27 06:39:28;;;;;;;;;4.00;3.00;;;;;24.92;32.60;100282.66;5035825;28;45554;-71
2022/10/27 06:41:55;;;;;;;;;3.00;1.33;;;;;24.91;32.65;100287.16;5037415;28;45416;-71
2022/10/27 06:44:20;;;;;;;;;1.67;1.67;;;;;24.97;32.64;100288.75;5034780;28;46541;-71
2022/10/27 06:46:46;;;;;;;;;2.00;1.67;;;;;24.90;32.53;100276.50;5035536;28;45506;-71
2022/10/27 06:49:12;;;;;;;;;3.33;2.00;;;;;24.94;32.39;100288.84;5037047;28;45401;-71
2022/10/27 06:51:37;;;;;;;;;1.67;1.67;;;;;24.93;32.39;100292.41;5037572;28;45486;-71
2022/10/27 06:54:03;;;;;;;;;2.00;2.00;;;;;24.52;32.25;100219.88;5036753;28;46590;-71
2022/10/27 06:56:28;;;;;;;;;2.67;2.00;;;;;24.90;32.37;100287.19;5036912;28;45292;-71
2022/10/27 06:58:54;;;;;;;;;3.00;2.00;;;;;25.02;32.29;100302.81;5037124;28;45264;-71
2022/10/27 07:01:19;;;;;;;;;2.00;2.00;;;;;25.00;32.38;100294.84;5036955;28;45616;-71
2022/10/27 07:03:45;;;;;;;;;2.00;1.00;;;;;25.07;32.31;100308.88;5036123;28;45516;-75
2022/10/27 07:06:11;;;;;;;;;1.00;1.00;;;;;25.01;32.39;100295.72;5035409;28;45948;-71
2022/10/27 07:08:36;;;;;;;;;2.00;1.00;;;;;25.09;32.22;100317.72;5034810;28;45540;-71
2022/10/27 07:11:02;;;;;;;;;3.00;1.00;;;;;25.07;32.21;100308.88;5035250;28;45607;-71
2022/10/27 07:13:27;;;;;;;;;3.33;1.33;;;;;25.08;31.79;100301.72;5033443;28;45650;-71
2022/10/27 07:15:53;;;;;;;;;2.00;2.00;;;;;25.16;32.09;100307.69;5034895;28;45485;-71
2022/10/27 07:18:18;;;;;;;;;2.00;2.00;;;;;25.23;31.90;100322.63;5034921;28;45546;-72
2022/10/27 07:20:45;;;;;;;;;3.00;2.00;;;;;25.33;31.44;100328.53;5035115;28;45558;-71
2022/10/27 07:23:11;;;;;;;;;1.67;1.00;;;;;25.25;31.44;100307.41;5034834;28;46268;-71
2022/10/27 07:25:37;;;;;;;;;1.00;0.00;;;;;25.37;31.19;100319.50;5034909;28;45349;-71
2022/10/27 07:28:05;;;;;;;;;3.00;2.67;;;;;25.41;31.31;100331.81;5032372;28;45458;-71
2022/10/27 07:30:36;;;;;;;;;2.67;1.00;;;;;25.46;30.93;100340.53;5035153;28;45498;-71
2022/10/27 07:33:03;;;;;;;;;2.33;2.00;;;;;25.54;31.44;100354.50;5034468;28;46108;-71
2022/10/27 07:35:29;;;;;;;;;1.00;1.00;;;;;25.53;31.07;100350.09;5035197;28;45803;-71
2022/10/27 07:37:54;;;;;;;;;3.00;1.00;;;;;25.61;31.35;100363.22;5035466;28;45477;-71
2022/10/27 07:40:21;;;;;;;;;1.00;1.00;;;;;25.67;31.32;100371.03;5051157;28;45585;-71
2022/10/27 07:42:55;;;;;;;;;4.00;2.00;;;;;25.54;31.50;100345.63;5035556;28;46610;-71
2022/10/27 07:45:23;;;;;;;;;1.67;1.67;;;;;25.71;31.58;100377.16;5034874;28;45485;-71
2022/10/27 07:47:51;;;;;;;;;4.00;3.00;;;;;25.77;31.13;100385.81;5035604;28;45469;-71
2022/10/27 07:50:19;;;;;;;;;2.00;1.67;;;;;25.77;31.17;100387.63;5059327;28;45427;-72
2022/10/27 07:52:49;;;;;;;;;1.67;1.67;;;;;25.68;31.50;100374.56;5032789;28;45465;-74
2022/10/27 07:55:15;;;;;;;;;3.00;2.00;;;;;25.76;31.31;100397.44;5031803;28;45543;-71
2022/10/27 07:57:42;;;;;;;;;2.00;1.00;;;;;25.56;31.74;100360.69;5035785;28;45438;-72
2022/10/27 08:00:11;;;;;;;;;2.00;1.00;;;;;25.73;31.37;100389.53;5037883;28;45433;-72
2022/10/27 08:02:36;;;;;;;;;4.00;1.67;;;;;25.68;31.77;100382.59;5052942;28;45925;-71
2022/10/27 08:05:02;;;;;;;;;4.00;2.00;;;;;25.68;32.02;100385.25;5036821;28;45616;-73
2022/10/27 08:07:28;;;;;;;;;1.67;1.67;;;;;25.75;31.20;100390.34;5037261;28;45304;-73
2022/10/27 08:09:54;;;;;;;;;2.67;1.00;;;;;25.68;30.89;100382.59;5037884;28;45490;-73
2022/10/27 08:12:19;;;;;;;;;3.00;2.00;;;;;25.82;30.77;100395.47;5036617;28;47059;-72
2022/10/27 08:14:45;;;;;;;;;2.00;1.00;;;;;25.82;31.20;100399.03;5035868;28;45575;-72
2022/10/27 08:17:12;;;;;;;;;1.00;1.00;;;;;25.77;31.01;100396.53;5036535;28;45416;-73
2022/10/27 08:19:38;;;;;;;;;4.00;2.00;;;;;25.81;31.33;100402.63;5037064;28;45250;-72
2022/10/27 08:22:07;;;;;;;;;2.67;1.00;;;;;25.73;31.45;100377.97;5037139;28;45504;-72
2022/10/27 08:24:33;;;;;;;;;3.00;1.67;;;;;25.89;31.33;100407.72;5034480;28;45562;-73
2022/10/27 08:26:59;;;;;;;;;2.67;1.00;;;;;25.86;31.44;100414.03;5036978;28;45532;-74
2022/10/27 08:29:25;;;;;;;;;2.00;1.33;;;;;25.89;30.87;100405.91;5036892;28;45662;-72
2022/10/27 08:31:51;;;;;;;;;1.67;1.00;;;;;26.01;30.73;100420.69;5036899;28;45470;-74
2022/10/27 08:34:16;;;;;;;;;2.00;1.00;;;;;25.99;30.79;100407.34;5037337;28;46457;-71
2022/10/27 08:36:42;;;;;;;;;9.67;7.33;;;;;25.97;30.51;100400.31;5037805;28;45638;-72
2022/10/27 08:39:11;;;;;;;;;2.67;2.00;;;;;26.11;30.28;100421.25;5037508;28;45869;-72
2022/10/27 08:41:50;;;;;;;;;2.67;2.00;;;;;26.14;30.52;100424.69;5036919;28;46192;-74
2022/10/27 08:44:32;;;;;;;;;1.33;1.00;;;;;26.11;30.82;100418.56;5036411;28;45558;-71
2022/10/27 08:47:05;;;;;;;;;2.67;2.00;;;;;26.09;30.78;100397.19;5036214;28;45748;-73
2022/10/27 08:49:45;;;;;;;;;4.67;3.67;;;;;26.16;30.24;100413.91;5035450;28;45389;-72
2022/10/27 08:52:26;;;;;;;;;7.00;4.00;;;;;26.28;30.04;100420.59;5035112;28;45649;-72
2022/10/27 08:54:59;;;;;;;;;3.33;2.33;;;;;26.32;30.02;100419.56;5037386;28;45502;-73
2022/10/27 08:57:28;;;;;;;;;3.33;2.00;;;;;26.28;30.04;100415.25;5037933;28;45604;-72
2022/10/27 08:59:55;;;;;;;;;6.33;4.00;;;;;26.49;29.64;100430.50;5036244;28;45639;-71
2022/10/27 09:02:48;;;;;;;;;4.67;4.00;;;;;26.59;29.54;100447.16;5036690;28;46055;-72
2022/10/27 09:05:43;;;;;;;;;5.00;4.00;;;;;26.62;29.93;100440.78;5058906;28;45483;-73
2022/10/27 09:08:25;;;;;;;;;3.00;2.00;;;;;26.66;29.41;100443.31;5034250;28;45639;-74
2022/10/27 09:11:12;;;;;;;;;3.00;3.00;;;;;26.70;29.55;100442.25;5037254;28;45441;-72
2022/10/27 09:13:50;;;;;;;;;2.33;2.00;;;;;26.72;29.53;100440.41;5034387;28;45673;-72
2022/10/27 09:16:31;;;;;;;;;3.00;2.00;;;;;26.67;29.17;100420.94;5051995;28;45477;-72
2022/10/27 09:19:02;;;;;;;;;4.00;3.33;;;;;26.84;29.46;100444.41;5036531;28;45491;-73
2022/10/27 09:21:30;;;;;;;;;2.00;2.00;;;;;26.79;29.27;100431.16;5037145;28;45488;-72
2022/10/27 09:24:09;;;;;;;;;2.00;2.00;;;;;26.91;29.28;100447.72;5036177;28;45492;-72
2022/10/27 09:26:34;;;;;;;;;1.33;1.33;;;;;26.95;29.42;100433.25;5035704;28;45493;-72
2022/10/27 09:29:04;;;;;;;;;1.00;1.00;;;;;27.09;29.00;100449.66;5036562;28;45429;-74
2022/10/27 09:31:54;;;;;;;;;4.33;2.00;;;;;27.14;29.15;100442.31;5035896;28;45833;-72
2022/10/27 09:34:26;;;;;;;;;3.67;2.67;;;;;27.15;28.59;100436.00;5035465;28;45764;-73
2022/10/27 09:36:52;;;;;;;;;3.33;2.00;;;;;27.16;28.71;100429.72;5061499;28;45472;-72
2022/10/27 09:39:21;;;;;;;;;2.00;2.00;;;;;27.16;28.64;100418.97;5036925;28;45513;-74
2022/10/27 09:41:48;;;;;;;;;2.00;1.00;;;;;27.32;28.19;100435.34;5036736;28;45418;-72
2022/10/27 09:44:19;;;;;;;;;1.33;1.00;;;;;27.33;28.14;100420.13;5036321;28;45397;-73
2022/10/27 09:46:52;;;;;;;;;1.33;1.00;;;;;27.44;28.39;100428.59;5036182;28;45774;-72
2022/10/27 09:49:21;;;;;;;;;4.00;2.33;;;;;27.31;28.17;100414.81;5033599;28;45310;-76
2022/10/27 09:52:22;;;;;;;;;1.67;1.00;;;;;27.44;28.08;100425.91;5036761;28;45372;-71
2022/10/27 09:54:53;;;;;;;;;2.67;2.00;;;;;27.40;27.87;100408.22;5021454;28;47964;-71
2022/10/27 09:57:22;;;;;;;;;2.00;1.00;;;;;27.48;28.01;100413.25;5065875;28;45509;-73
2022/10/27 10:00:14;;;;;;;;;3.00;2.00;;;;;27.50;28.17;100417.59;5036794;28;45336;-72
2022/10/27 10:02:54;;;;;;;;;3.67;1.33;;;;;27.45;28.40;100416.91;5037327;28;45384;-75
2022/10/27 10:05:26;;;;;;;;;2.00;1.00;;;;;27.46;27.55;100389.16;5036860;28;45400;-72
2022/10/27 10:07:53;;;;;;;;;3.67;2.67;;;;;27.51;27.81;100397.00;5036852;28;45391;-72
2022/10/27 10:10:30;;;;;;;;;3.00;1.00;;;;;27.56;27.44;100395.00;5036511;28;45440;-72
2022/10/27 10:13:16;;;;;;;;;2.67;2.00;;;;;27.68;27.46;100382.88;5036467;28;45420;-73
2022/10/27 10:15:44;;;;;;;;;4.00;1.00;;;;;27.69;27.42;100392.66;5035717;28;46098;-72
2022/10/27 10:18:25;;;;;;;;;2.33;1.67;;;;;27.67;27.45;100392.72;5036846;28;45356;-75
2022/10/27 10:21:03;;;;;;;;;3.67;2.67;;;;;27.75;26.95;100376.28;5036411;28;45478;-74
2022/10/27 10:23:33;;;;;;;;;2.33;2.00;;;;;27.87;26.95;100390.97;5036026;28;45360;-74
2022/10/27 10:26:01;;;;;;;;;4.00;2.00;;;;;27.89;27.09;100384.63;5035028;28;48131;-75
2022/10/27 10:28:35;;;;;;;;;2.33;1.00;;;;;27.94;27.06;100397.88;5036736;28;45223;-74
2022/10/27 10:31:06;;;;;;;;;2.00;1.00;;;;;28.02;27.07;100392.16;5036954;28;45468;-74
2022/10/27 10:33:36;;;;;;;;;2.00;1.00;;;;;27.96;26.97;100391.47;5036529;28;45426;-74
2022/10/27 10:36:18;;;;;;;;;1.67;1.67;;;;;28.08;27.09;100373.94;5035131;28;46329;-73
2022/10/27 10:38:54;;;;;;;;;1.33;1.00;;;;;28.19;26.97;100396.75;5034162;28;45362;-74
2022/10/27 10:41:20;;;;;;;;;3.00;1.00;;;;;28.23;26.89;100385.81;5036407;28;45532;-74
2022/10/27 10:44:06;;;;;;;;;2.00;2.00;;;;;28.24;27.08;100394.72;5036157;28;45430;-73
2022/10/27 10:46:32;;;;;;;;;3.00;2.00;;;;;28.17;26.78;100376.22;5035513;28;46403;-74
2022/10/27 10:48:59;;;;;;;;;0.33;0.00;;;;;28.19;26.86;100368.06;5035922;28;45246;-73
2022/10/27 10:51:35;;;;;;;;;2.67;2.00;;;;;28.18;26.81;100369.03;5035915;28;45559;-74
2022/10/27 10:54:16;;;;;;;;;2.00;1.00;;;;;28.28;26.90;100381.09;5034298;28;45525;-73
2022/10/27 10:56:42;;;;;;;;;3.67;2.00;;;;;28.24;27.19;100376.78;5057784;28;46308;-74
2022/10/27 10:59:14;;;;;;;;;5.00;3.00;;;;;28.33;27.19;100373.69;5035543;28;45591;-73
2022/10/27 11:02:12;;;;;;;;;3.00;2.00;;;;;28.62;26.44;100382.22;5035992;28;45585;-73
2022/10/27 11:04:44;;;;;;;;;3.33;2.33;;;;;28.78;26.39;100386.88;5036091;28;45510;-73
2022/10/27 11:07:24;;;;;;;;;3.00;2.00;;;;;28.90;26.19;100379.06;5035791;28;45373;-73
2022/10/27 11:10:08;;;;;;;;;2.33;2.33;;;;;29.02;26.00;100382.97;5052025;28;45354;-75
2022/10/27 11:12:41;;;;;;;;;2.00;2.00;;;;;29.09;26.37;100372.78;5036176;28;46063;-75
2022/10/27 11:15:19;;;;;;;;;1.00;0.00;;;;;29.07;25.97;100364.78;5035436;28;45461;-72
2022/10/27 11:17:48;;;;;;;;;2.67;2.00;;;;;29.17;26.25;100381.38;5036130;28;46215;-72
2022/10/27 11:20:24;;;;;;;;;2.00;2.00;;;;;29.13;25.53;100377.97;5035196;28;45556;-76
2022/10/27 11:22:52;;;;;;;;;1.33;1.33;;;;;29.08;26.04;100365.66;5034981;28;45556;-72
2022/10/27 11:25:25;;;;;;;;;3.00;2.33;;;;;29.04;25.49;100370.31;5036563;28;45565;-76
2022/10/27 11:28:15;;;;;;;;;3.00;2.00;;;;;29.01;25.85;100369.59;5036412;28;45244;-72
2022/10/27 11:30:57;;;;;;;;;2.00;1.00;;;;;28.99;26.43;100372.38;5035815;28;45505;-75
2022/10/27 11:33:35;;;;;;;;;3.00;2.00;;;;;28.88;25.95;100358.56;5039550;28;45230;-76
2022/10/27 11:36:21;;;;;;;;;2.67;2.00;;;;;28.89;25.29;100361.19;5039575;28;45448;-75